sensor_id;sensor_type;location;lat;lon;timestamp;pressure;altitude;pressure_sealevel;temperature;humidity
60371;BME280;48550;40.588;49.684;2022-07-06T00:01:06;101493.22;;;22.46;100.00
60371;BME280;48550;40.588;49.684;2022-07-06T00:03:32;101500.31;;;22.47;98.95
60371;BME280;48550;40.588;49.684;2022-07-06T00:05:58;101500.91;;;22.44;98.06
60371;BME280;48550;40.588;49.684;2022-07-06T00:08:24;101496.84;;;22.42;98.00
60371;BME280;48550;40.588;49.684;2022-07-06T00:10:49;101497.44;;;22.39;97.39
60371;BME280;48550;40.588;49.684;2022-07-06T00:13:15;101500.44;;;22.37;94.07
60371;BME280;48550;40.588;49.684;2022-07-06T00:15:41;101504.28;;;22.36;94.09
60371;BME280;48550;40.588;49.684;2022-07-06T00:18:07;101511.41;;;22.37;94.68
60371;BME280;48550;40.588;49.684;2022-07-06T00:20:33;101511.41;;;22.37;94.89
60371;BME280;48550;40.588;49.684;2022-07-06T00:22:58;101520.19;;;22.34;94.87
60371;BME280;48550;40.588;49.684;2022-07-06T00:25:24;101521.28;;;22.33;95.44
60371;BME280;48550;40.588;49.684;2022-07-06T00:27:50;101516.94;;;22.32;95.58
60371;BME280;48550;40.588;49.684;2022-07-06T00:30:16;101536.09;;;22.27;94.07
60371;BME280;48550;40.588;49.684;2022-07-06T00:32:41;101535.56;;;22.25;94.32
60371;BME280;48550;40.588;49.684;2022-07-06T00:35:07;101531.22;;;22.24;93.62
60371;BME280;48550;40.588;49.684;2022-07-06T00:37:34;101532.31;;;22.23;91.46
60371;BME280;48550;40.588;49.684;2022-07-06T00:40:00;101532.91;;;22.20;91.10
60371;BME280;48550;40.588;49.684;2022-07-06T00:42:25;101533.72;;;22.20;90.26
60371;BME280;48550;40.588;49.684;2022-07-06T00:44:51;101530.69;;;22.22;90.24
60371;BME280;48550;40.588;49.684;2022-07-06T00:47:17;101536.16;;;22.22;91.01
60371;BME280;48550;40.588;49.684;2022-07-06T00:49:43;101543.25;;;22.23;90.09
60371;BME280;48550;40.588;49.684;2022-07-06T00:52:27;101544.06;;;22.24;89.22
60371;BME280;48550;40.588;49.684;2022-07-06T00:54:54;101544.34;;;22.22;89.00
60371;BME280;48550;40.588;49.684;2022-07-06T00:57:20;101544.41;;;22.17;88.89
60371;BME280;48550;40.588;49.684;2022-07-06T00:59:46;101541.41;;;22.18;86.79
60371;BME280;48550;40.588;49.684;2022-07-06T01:02:12;101540.53;;;22.23;88.96
60371;BME280;48550;40.588;49.684;2022-07-06T01:04:37;101547.31;;;22.26;88.58
60371;BME280;48550;40.588;49.684;2022-07-06T01:07:03;101544.31;;;22.27;88.03
60371;BME280;48550;40.588;49.684;2022-07-06T01:09:29;101549.53;;;22.24;86.54
60371;BME280;48550;40.588;49.684;2022-07-06T01:11:55;101559.09;;;22.26;85.27
60371;BME280;48550;40.588;49.684;2022-07-06T01:14:21;101552.81;;;22.26;87.38
60371;BME280;48550;40.588;49.684;2022-07-06T01:16:48;101559.91;;;22.27;87.62
60371;BME280;48550;40.588;49.684;2022-07-06T01:19:14;101564.25;;;22.28;87.36
60371;BME280;48550;40.588;49.684;2022-07-06T01:21:40;101566.69;;;22.29;86.95
60371;BME280;48550;40.588;49.684;2022-07-06T01:24:06;101566.16;;;22.32;86.57
60371;BME280;48550;40.588;49.684;2022-07-06T01:26:32;101572.97;;;22.35;88.25
60371;BME280;48550;40.588;49.684;2022-07-06T01:28:58;101567.78;;;22.33;88.04
60371;BME280;48550;40.588;49.684;2022-07-06T01:31:25;101570.16;;;22.40;90.25
60371;BME280;48550;40.588;49.684;2022-07-06T01:33:54;101568.03;;;22.37;90.07
60371;BME280;48550;40.588;49.684;2022-07-06T01:36:20;101567.19;;;22.36;88.11
60371;BME280;48550;40.588;49.684;2022-07-06T01:38:54;101574.25;;;22.42;88.09
60371;BME280;48550;40.588;49.684;2022-07-06T01:41:21;101571.22;;;22.44;87.30
60371;BME280;48550;40.588;49.684;2022-07-06T01:43:47;101572.56;;;22.46;85.81
60371;BME280;48550;40.588;49.684;2022-07-06T01:46:13;101571.16;;;22.49;81.66
60371;BME280;48550;40.588;49.684;2022-07-06T01:48:39;101572.44;;;22.57;80.77
60371;BME280;48550;40.588;49.684;2022-07-06T01:51:05;101571.78;;;22.65;81.58
60371;BME280;48550;40.588;49.684;2022-07-06T01:53:31;101577.84;;;22.62;77.82
60371;BME280;48550;40.588;49.684;2022-07-06T01:55:57;101579.03;;;22.74;75.79
60371;BME280;48550;40.588;49.684;2022-07-06T01:58:23;101576.78;;;22.81;73.22
60371;BME280;48550;40.588;49.684;2022-07-06T02:00:48;101569.41;;;22.82;69.81
60371;BME280;48550;40.588;49.684;2022-07-06T02:03:14;101572.59;;;22.89;65.97
60371;BME280;48550;40.588;49.684;2022-07-06T02:05:40;101562.59;;;22.98;68.25
60371;BME280;48550;40.588;49.684;2022-07-06T02:08:06;101576.75;;;23.05;67.91
60371;BME280;48550;40.588;49.684;2022-07-06T02:10:32;101568.47;;;23.10;67.70
60371;BME280;48550;40.588;49.684;2022-07-06T02:12:57;101574.69;;;23.16;70.07
60371;BME280;48550;40.588;49.684;2022-07-06T02:15:23;101575.44;;;23.22;71.58
60371;BME280;48550;40.588;49.684;2022-07-06T02:17:49;101575.94;;;23.24;72.10
60371;BME280;48550;40.588;49.684;2022-07-06T02:20:15;101572.63;;;23.27;73.82
60371;BME280;48550;40.588;49.684;2022-07-06T02:22:40;101583.41;;;23.37;74.51
60371;BME280;48550;40.588;49.684;2022-07-06T02:25:06;101585.03;;;23.38;73.22
60371;BME280;48550;40.588;49.684;2022-07-06T02:27:32;101587.09;;;23.46;72.62
60371;BME280;48550;40.588;49.684;2022-07-06T02:29:58;101570.06;;;23.49;71.16
60371;BME280;48550;40.588;49.684;2022-07-06T02:32:24;101586.22;;;23.51;71.67
60371;BME280;48550;40.588;49.684;2022-07-06T02:34:50;101585.47;;;23.64;70.56
60371;BME280;48550;40.588;49.684;2022-07-06T02:37:16;101586.41;;;23.73;69.21
60371;BME280;48550;40.588;49.684;2022-07-06T02:39:41;101579.81;;;23.93;69.06
60371;BME280;48550;40.588;49.684;2022-07-06T02:42:07;101582.66;;;24.01;68.98
60371;BME280;48550;40.588;49.684;2022-07-06T02:44:33;101581.53;;;24.02;67.25
60371;BME280;48550;40.588;49.684;2022-07-06T02:46:59;101577.28;;;24.10;66.45
60371;BME280;48550;40.588;49.684;2022-07-06T02:49:25;101585.81;;;24.08;66.23
60371;BME280;48550;40.588;49.684;2022-07-06T02:51:50;101586.84;;;24.13;66.43
60371;BME280;48550;40.588;49.684;2022-07-06T02:54:16;101589.28;;;24.14;67.49
60371;BME280;48550;40.588;49.684;2022-07-06T02:56:42;101597.59;;;24.09;66.63
60371;BME280;48550;40.588;49.684;2022-07-06T02:59:07;101590.41;;;24.13;65.44
60371;BME280;48550;40.588;49.684;2022-07-06T03:01:33;101608.53;;;24.28;65.99
60371;BME280;48550;40.588;49.684;2022-07-06T03:03:59;101605.59;;;24.52;65.54
60371;BME280;48550;40.588;49.684;2022-07-06T03:06:25;101601.47;;;24.54;64.26
60371;BME280;48550;40.588;49.684;2022-07-06T03:08:50;101604.59;;;24.61;61.98
60371;BME280;48550;40.588;49.684;2022-07-06T03:11:16;101604.50;;;24.53;61.27
60371;BME280;48550;40.588;49.684;2022-07-06T03:13:42;101607.22;;;24.80;59.91
60371;BME280;48550;40.588;49.684;2022-07-06T03:16:08;101609.16;;;24.93;61.42
60371;BME280;48550;40.588;49.684;2022-07-06T03:18:33;101613.72;;;25.12;62.70
60371;BME280;48550;40.588;49.684;2022-07-06T03:20:59;101619.50;;;24.96;63.70
60371;BME280;48550;40.588;49.684;2022-07-06T03:23:26;101615.53;;;25.16;66.10
60371;BME280;48550;40.588;49.684;2022-07-06T03:25:51;101616.84;;;25.19;62.72
60371;BME280;48550;40.588;49.684;2022-07-06T03:28:17;101622.34;;;25.19;61.04
60371;BME280;48550;40.588;49.684;2022-07-06T03:30:43;101622.19;;;25.74;56.02
60371;BME280;48550;40.588;49.684;2022-07-06T03:33:08;101623.28;;;26.88;52.30
60371;BME280;48550;40.588;49.684;2022-07-06T03:35:34;101624.69;;;27.51;48.33
60371;BME280;48550;40.588;49.684;2022-07-06T03:38:00;101633.56;;;28.64;44.62
60371;BME280;48550;40.588;49.684;2022-07-06T03:40:28;101635.78;;;29.29;40.50
60371;BME280;48550;40.588;49.684;2022-07-06T03:42:53;101637.56;;;30.66;40.88
60371;BME280;48550;40.588;49.684;2022-07-06T03:45:19;101639.38;;;30.86;39.31
60371;BME280;48550;40.588;49.684;2022-07-06T03:47:45;101637.53;;;30.78;40.04
60371;BME280;48550;40.588;49.684;2022-07-06T03:50:10;101644.28;;;30.32;41.84
60371;BME280;48550;40.588;49.684;2022-07-06T03:52:36;101640.03;;;31.32;39.91
60371;BME280;48550;40.588;49.684;2022-07-06T03:55:14;101640.16;;;31.11;39.95
60371;BME280;48550;40.588;49.684;2022-07-06T03:57:39;101645.16;;;30.93;39.02
60371;BME280;48550;40.588;49.684;2022-07-06T04:00:07;101647.22;;;29.49;42.17
60371;BME280;48550;40.588;49.684;2022-07-06T04:02:33;101649.47;;;29.05;44.10
60371;BME280;48550;40.588;49.684;2022-07-06T04:04:58;101650.13;;;28.64;45.12
60371;BME280;48550;40.588;49.684;2022-07-06T04:07:25;101644.78;;;28.59;43.93
60371;BME280;48550;40.588;49.684;2022-07-06T04:09:51;101649.13;;;30.23;39.60
60371;BME280;48550;40.588;49.684;2022-07-06T04:12:16;101645.59;;;32.16;37.76
60371;BME280;48550;40.588;49.684;2022-07-06T04:14:43;101644.69;;;31.56;37.94
60371;BME280;48550;40.588;49.684;2022-07-06T04:17:08;101648.66;;;32.58;37.03
60371;BME280;48550;40.588;49.684;2022-07-06T04:19:52;101647.28;;;32.20;35.95
60371;BME280;48550;40.588;49.684;2022-07-06T04:22:18;101640.16;;;32.35;36.68
60371;BME280;48550;40.588;49.684;2022-07-06T04:24:44;101634.16;;;31.89;37.68
60371;BME280;48550;40.588;49.684;2022-07-06T04:27:10;101637.03;;;31.65;38.53
60371;BME280;48550;40.588;49.684;2022-07-06T04:29:35;101650.09;;;32.68;38.04
60371;BME280;48550;40.588;49.684;2022-07-06T04:32:02;101645.28;;;33.15;37.34
60371;BME280;48550;40.588;49.684;2022-07-06T04:34:27;101650.38;;;32.94;37.53
60371;BME280;48550;40.588;49.684;2022-07-06T04:36:53;101647.47;;;34.22;34.46
60371;BME280;48550;40.588;49.684;2022-07-06T04:39:19;101643.72;;;33.92;32.32
60371;BME280;48550;40.588;49.684;2022-07-06T04:41:44;101647.25;;;33.89;33.30
60371;BME280;48550;40.588;49.684;2022-07-06T04:44:10;101641.38;;;33.55;33.84
60371;BME280;48550;40.588;49.684;2022-07-06T04:46:36;101648.19;;;31.81;36.62
60371;BME280;48550;40.588;49.684;2022-07-06T04:49:02;101643.19;;;32.62;35.54
60371;BME280;48550;40.588;49.684;2022-07-06T04:51:27;101647.25;;;32.80;36.73
60371;BME280;48550;40.588;49.684;2022-07-06T04:53:53;101642.56;;;31.37;40.03
60371;BME280;48550;40.588;49.684;2022-07-06T04:56:19;101636.81;;;31.70;39.50
60371;BME280;48550;40.588;49.684;2022-07-06T04:58:44;101645.84;;;32.11;38.88
60371;BME280;48550;40.588;49.684;2022-07-06T05:01:10;101643.03;;;32.39;38.32
60371;BME280;48550;40.588;49.684;2022-07-06T05:03:36;101651.19;;;32.47;35.71
60371;BME280;48550;40.588;49.684;2022-07-06T05:06:07;101644.81;;;32.47;35.92
60371;BME280;48550;40.588;49.684;2022-07-06T05:08:33;101644.97;;;32.07;36.06
60371;BME280;48550;40.588;49.684;2022-07-06T05:11:00;101649.66;;;31.90;34.85
60371;BME280;48550;40.588;49.684;2022-07-06T05:13:26;101650.59;;;31.54;35.27
60371;BME280;48550;40.588;49.684;2022-07-06T05:15:51;101640.03;;;32.16;35.58
60371;BME280;48550;40.588;49.684;2022-07-06T05:18:17;101641.88;;;32.24;37.22
60371;BME280;48550;40.588;49.684;2022-07-06T05:20:43;101639.44;;;31.95;37.22
60371;BME280;48550;40.588;49.684;2022-07-06T05:23:09;101637.03;;;31.93;36.72
60371;BME280;48550;40.588;49.684;2022-07-06T05:25:35;101640.25;;;32.39;36.32
60371;BME280;48550;40.588;49.684;2022-07-06T05:28:02;101635.09;;;31.01;38.17
60371;BME280;48550;40.588;49.684;2022-07-06T05:30:28;101635.00;;;31.50;38.47
60371;BME280;48550;40.588;49.684;2022-07-06T05:32:54;101637.25;;;31.72;38.65
60371;BME280;48550;40.588;49.684;2022-07-06T05:35:20;101638.69;;;32.10;37.89
60371;BME280;48550;40.588;49.684;2022-07-06T05:37:46;101645.47;;;33.07;36.18
60371;BME280;48550;40.588;49.684;2022-07-06T05:40:12;101638.56;;;32.81;36.80
60371;BME280;48550;40.588;49.684;2022-07-06T05:42:37;101646.75;;;31.59;38.11
60371;BME280;48550;40.588;49.684;2022-07-06T05:45:03;101647.03;;;32.10;36.41
60371;BME280;48550;40.588;49.684;2022-07-06T05:47:30;101649.81;;;31.82;37.40
60371;BME280;48550;40.588;49.684;2022-07-06T05:50:14;101652.69;;;31.85;37.33
60371;BME280;48550;40.588;49.684;2022-07-06T05:52:51;101637.59;;;31.99;37.55
60371;BME280;48550;40.588;49.684;2022-07-06T05:55:20;101642.66;;;32.25;37.67
60371;BME280;48550;40.588;49.684;2022-07-06T05:57:45;101650.44;;;31.91;38.54
60371;BME280;48550;40.588;49.684;2022-07-06T06:00:12;101647.09;;;31.98;38.19
60371;BME280;48550;40.588;49.684;2022-07-06T06:02:41;101649.00;;;32.09;37.93
60371;BME280;48550;40.588;49.684;2022-07-06T06:05:09;101651.88;;;30.68;40.86
60371;BME280;48550;40.588;49.684;2022-07-06T06:07:36;101650.13;;;30.76;41.32
60371;BME280;48550;40.588;49.684;2022-07-06T06:10:07;101656.56;;;31.04;41.76
60371;BME280;48550;40.588;49.684;2022-07-06T06:12:34;101659.81;;;31.99;38.78
60371;BME280;48550;40.588;49.684;2022-07-06T06:15:00;101651.78;;;32.09;38.01
60371;BME280;48550;40.588;49.684;2022-07-06T06:17:26;101648.75;;;31.86;39.39
60371;BME280;48550;40.588;49.684;2022-07-06T06:19:51;101654.06;;;31.51;40.51
60371;BME280;48550;40.588;49.684;2022-07-06T06:22:17;101654.59;;;31.29;40.38
60371;BME280;48550;40.588;49.684;2022-07-06T06:24:43;101654.03;;;30.99;41.93
60371;BME280;48550;40.588;49.684;2022-07-06T06:27:09;101653.00;;;30.91;41.91
60371;BME280;48550;40.588;49.684;2022-07-06T06:29:35;101662.38;;;30.87;43.17
60371;BME280;48550;40.588;49.684;2022-07-06T06:32:01;101666.84;;;31.40;40.96
60371;BME280;48550;40.588;49.684;2022-07-06T06:34:26;101651.22;;;31.76;38.23
60371;BME280;48550;40.588;49.684;2022-07-06T06:36:52;101665.38;;;31.99;37.76
60371;BME280;48550;40.588;49.684;2022-07-06T06:39:18;101665.72;;;31.57;39.04
60371;BME280;48550;40.588;49.684;2022-07-06T06:41:43;101663.84;;;32.01;38.51
60371;BME280;48550;40.588;49.684;2022-07-06T06:44:09;101665.09;;;31.76;38.93
60371;BME280;48550;40.588;49.684;2022-07-06T06:46:35;101663.28;;;32.39;38.04
60371;BME280;48550;40.588;49.684;2022-07-06T06:49:01;101659.69;;;31.03;40.74
60371;BME280;48550;40.588;49.684;2022-07-06T06:51:26;101666.91;;;32.12;37.52
60371;BME280;48550;40.588;49.684;2022-07-06T06:53:52;101676.69;;;31.93;38.04
60371;BME280;48550;40.588;49.684;2022-07-06T06:56:18;101668.94;;;32.43;36.33
60371;BME280;48550;40.588;49.684;2022-07-06T06:58:44;101664.97;;;32.28;36.60
60371;BME280;48550;40.588;49.684;2022-07-06T07:01:09;101659.31;;;31.69;37.15
60371;BME280;48550;40.588;49.684;2022-07-06T07:03:35;101667.00;;;31.87;36.65
60371;BME280;48550;40.588;49.684;2022-07-06T07:06:01;101665.00;;;32.44;34.80
60371;BME280;48550;40.588;49.684;2022-07-06T07:08:27;101664.63;;;31.46;38.24
60371;BME280;48550;40.588;49.684;2022-07-06T07:10:53;101673.19;;;31.81;36.71
60371;BME280;48550;40.588;49.684;2022-07-06T07:13:18;101666.53;;;30.81;37.62
60371;BME280;48550;40.588;49.684;2022-07-06T07:15:44;101662.41;;;30.29;38.49
60371;BME280;48550;40.588;49.684;2022-07-06T07:18:10;101667.41;;;30.48;38.14
60371;BME280;48550;40.588;49.684;2022-07-06T07:20:36;101676.91;;;31.20;38.04
60371;BME280;48550;40.588;49.684;2022-07-06T07:23:01;101670.34;;;30.76;38.84
60371;BME280;48550;40.588;49.684;2022-07-06T07:25:27;101664.31;;;29.21;42.84
60371;BME280;48550;40.588;49.684;2022-07-06T07:27:53;101668.84;;;29.88;42.74
60371;BME280;48550;40.588;49.684;2022-07-06T07:30:20;101670.53;;;30.01;41.32
60371;BME280;48550;40.588;49.684;2022-07-06T07:32:47;101676.06;;;29.60;42.42
60371;BME280;48550;40.588;49.684;2022-07-06T07:35:13;101669.53;;;30.63;40.57
60371;BME280;48550;40.588;49.684;2022-07-06T07:37:39;101662.84;;;29.86;41.09
60371;BME280;48550;40.588;49.684;2022-07-06T07:40:05;101681.56;;;29.18;43.08
60371;BME280;48550;40.588;49.684;2022-07-06T07:42:31;101667.44;;;28.82;44.62
60371;BME280;48550;40.588;49.684;2022-07-06T07:44:58;101659.75;;;29.67;42.80
60371;BME280;48550;40.588;49.684;2022-07-06T07:47:24;101661.47;;;29.71;42.23
60371;BME280;48550;40.588;49.684;2022-07-06T07:49:49;101669.94;;;29.54;43.57
60371;BME280;48550;40.588;49.684;2022-07-06T07:52:15;101668.91;;;29.59;43.90
60371;BME280;48550;40.588;49.684;2022-07-06T07:54:41;101681.03;;;28.95;45.05
60371;BME280;48550;40.588;49.684;2022-07-06T07:57:07;101668.31;;;27.92;47.95
60371;BME280;48550;40.588;49.684;2022-07-06T07:59:32;101663.59;;;27.49;49.45
60371;BME280;48550;40.588;49.684;2022-07-06T08:01:58;101674.91;;;27.13;51.27
60371;BME280;48550;40.588;49.684;2022-07-06T08:04:24;101676.97;;;26.59;51.74
60371;BME280;48550;40.588;49.684;2022-07-06T08:06:50;101673.81;;;26.44;52.79
60371;BME280;48550;40.588;49.684;2022-07-06T08:09:16;101679.75;;;26.68;51.87
60371;BME280;48550;40.588;49.684;2022-07-06T08:11:43;101671.34;;;26.34;51.14
60371;BME280;48550;40.588;49.684;2022-07-06T08:14:09;101666.81;;;26.38;51.81
60371;BME280;48550;40.588;49.684;2022-07-06T08:16:35;101672.72;;;26.53;53.03
60371;BME280;48550;40.588;49.684;2022-07-06T08:19:00;101671.97;;;26.70;52.64
60371;BME280;48550;40.588;49.684;2022-07-06T08:21:26;101678.41;;;26.57;52.31
60371;BME280;48550;40.588;49.684;2022-07-06T08:23:53;101676.28;;;26.94;52.13
60371;BME280;48550;40.588;49.684;2022-07-06T08:26:19;101675.41;;;27.24;51.06
60371;BME280;48550;40.588;49.684;2022-07-06T08:28:46;101667.28;;;27.19;50.83
60371;BME280;48550;40.588;49.684;2022-07-06T08:31:12;101671.81;;;26.36;53.95
60371;BME280;48550;40.588;49.684;2022-07-06T08:33:37;101668.66;;;26.51;52.32
60371;BME280;48550;40.588;49.684;2022-07-06T08:36:03;101670.56;;;25.97;54.67
60371;BME280;48550;40.588;49.684;2022-07-06T08:38:30;101672.72;;;25.64;56.36
60371;BME280;48550;40.588;49.684;2022-07-06T08:40:56;101673.56;;;26.32;55.85
60371;BME280;48550;40.588;49.684;2022-07-06T08:43:22;101679.00;;;26.76;53.19
60371;BME280;48550;40.588;49.684;2022-07-06T08:45:50;101681.66;;;26.59;54.32
60371;BME280;48550;40.588;49.684;2022-07-06T08:48:19;101691.81;;;26.27;55.71
60371;BME280;48550;40.588;49.684;2022-07-06T08:50:48;101684.69;;;26.49;54.99
60371;BME280;48550;40.588;49.684;2022-07-06T08:53:16;101686.34;;;26.58;54.40
60371;BME280;48550;40.588;49.684;2022-07-06T08:55:42;101687.47;;;26.57;53.69
60371;BME280;48550;40.588;49.684;2022-07-06T08:58:08;101696.09;;;26.34;53.78
60371;BME280;48550;40.588;49.684;2022-07-06T09:00:34;101691.91;;;26.14;55.73
60371;BME280;48550;40.588;49.684;2022-07-06T09:03:01;101686.00;;;25.84;57.06
60371;BME280;48550;40.588;49.684;2022-07-06T09:05:29;101686.84;;;26.07;55.36
60371;BME280;48550;40.588;49.684;2022-07-06T09:07:55;101684.03;;;26.21;56.40
60371;BME280;48550;40.588;49.684;2022-07-06T09:10:21;101683.63;;;25.91;57.26
60371;BME280;48550;40.588;49.684;2022-07-06T09:12:48;101696.25;;;25.92;58.05
60371;BME280;48550;40.588;49.684;2022-07-06T09:15:14;101690.25;;;25.90;57.70
60371;BME280;48550;40.588;49.684;2022-07-06T09:17:41;101681.97;;;26.04;57.53
60371;BME280;48550;40.588;49.684;2022-07-06T09:20:12;101684.81;;;25.77;57.87
60371;BME280;48550;40.588;49.684;2022-07-06T09:22:38;101678.22;;;25.64;58.17
60371;BME280;48550;40.588;49.684;2022-07-06T09:25:15;101691.00;;;25.46;59.84
60371;BME280;48550;40.588;49.684;2022-07-06T09:27:43;101682.88;;;25.41;59.43
60371;BME280;48550;40.588;49.684;2022-07-06T09:30:13;101696.56;;;25.55;60.58
60371;BME280;48550;40.588;49.684;2022-07-06T09:32:44;101693.31;;;25.53;59.98
60371;BME280;48550;40.588;49.684;2022-07-06T09:35:22;101686.59;;;25.59;58.55
60371;BME280;48550;40.588;49.684;2022-07-06T09:38:12;101687.53;;;25.54;60.34
60371;BME280;48550;40.588;49.684;2022-07-06T09:40:40;101686.47;;;25.28;61.20
60371;BME280;48550;40.588;49.684;2022-07-06T09:43:26;101684.91;;;25.36;59.62
60371;BME280;48550;40.588;49.684;2022-07-06T09:45:54;101681.91;;;25.59;59.05
60371;BME280;48550;40.588;49.684;2022-07-06T09:48:25;101678.00;;;25.74;57.36
60371;BME280;48550;40.588;49.684;2022-07-06T09:51:02;101683.56;;;25.83;55.74
60371;BME280;48550;40.588;49.684;2022-07-06T09:53:28;101683.44;;;25.65;57.31
60371;BME280;48550;40.588;49.684;2022-07-06T09:55:55;101686.38;;;25.69;55.71
60371;BME280;48550;40.588;49.684;2022-07-06T09:58:24;101677.38;;;25.77;55.18
60371;BME280;48550;40.588;49.684;2022-07-06T10:00:50;101685.25;;;25.92;53.74
60371;BME280;48550;40.588;49.684;2022-07-06T10:03:17;101682.22;;;26.16;52.74
60371;BME280;48550;40.588;49.684;2022-07-06T10:05:45;101683.44;;;25.88;52.90
60371;BME280;48550;40.588;49.684;2022-07-06T10:08:16;101681.56;;;25.97;53.71
60371;BME280;48550;40.588;49.684;2022-07-06T10:10:43;101692.38;;;25.71;54.24
60371;BME280;48550;40.588;49.684;2022-07-06T10:13:09;101685.13;;;25.75;53.63
60371;BME280;48550;40.588;49.684;2022-07-06T10:15:37;101691.31;;;25.45;52.61
60371;BME280;48550;40.588;49.684;2022-07-06T10:18:08;101684.97;;;25.58;53.62
60371;BME280;48550;40.588;49.684;2022-07-06T10:20:38;101684.56;;;25.51;54.78
60371;BME280;48550;40.588;49.684;2022-07-06T10:23:05;101681.75;;;25.42;53.77
60371;BME280;48550;40.588;49.684;2022-07-06T10:25:32;101680.13;;;25.41;53.66
60371;BME280;48550;40.588;49.684;2022-07-06T10:27:59;101697.66;;;25.18;53.98
60371;BME280;48550;40.588;49.684;2022-07-06T10:30:25;101692.44;;;25.44;53.58
60371;BME280;48550;40.588;49.684;2022-07-06T10:32:54;101691.16;;;25.27;51.93
60371;BME280;48550;40.588;49.684;2022-07-06T10:35:21;101688.81;;;25.07;53.30
60371;BME280;48550;40.588;49.684;2022-07-06T10:38:06;101688.09;;;25.01;53.07
60371;BME280;48550;40.588;49.684;2022-07-06T10:40:37;101681.78;;;24.87;52.46
60371;BME280;48550;40.588;49.684;2022-07-06T10:43:21;101681.19;;;25.04;52.41
60371;BME280;48550;40.588;49.684;2022-07-06T10:50:49;101692.84;;;25.23;54.10
60371;BME280;48550;40.588;49.684;2022-07-06T10:53:24;101696.84;;;25.17;53.15
60371;BME280;48550;40.588;49.684;2022-07-06T10:55:52;101705.28;;;25.21;55.33
60371;BME280;48550;40.588;49.684;2022-07-06T11:01:15;101709.44;;;24.91;54.60
60371;BME280;48550;40.588;49.684;2022-07-06T11:03:43;101699.91;;;25.02;55.10
60371;BME280;48550;40.588;49.684;2022-07-06T11:08:47;101693.56;;;25.15;55.28
60371;BME280;48550;40.588;49.684;2022-07-06T11:11:17;101693.09;;;25.27;54.86
60371;BME280;48550;40.588;49.684;2022-07-06T11:17:00;101694.69;;;25.14;56.58
60371;BME280;48550;40.588;49.684;2022-07-06T11:19:28;101683.72;;;25.00;54.64
60371;BME280;48550;40.588;49.684;2022-07-06T11:21:56;101689.84;;;24.97;56.31
60371;BME280;48550;40.588;49.684;2022-07-06T11:24:30;101694.78;;;24.95;54.29
60371;BME280;48550;40.588;49.684;2022-07-06T11:26:58;101694.22;;;24.98;55.21
60371;BME280;48550;40.588;49.684;2022-07-06T11:29:25;101694.00;;;25.09;56.37
60371;BME280;48550;40.588;49.684;2022-07-06T11:31:54;101687.59;;;24.99;57.62
60371;BME280;48550;40.588;49.684;2022-07-06T11:34:23;101678.84;;;24.97;58.36
60371;BME280;48550;40.588;49.684;2022-07-06T11:36:54;101668.03;;;24.87;56.37
60371;BME280;48550;40.588;49.684;2022-07-06T11:39:20;101677.28;;;24.91;57.14
60371;BME280;48550;40.588;49.684;2022-07-06T11:41:46;101670.19;;;24.63;57.68
60371;BME280;48550;40.588;49.684;2022-07-06T11:44:12;101666.91;;;24.61;59.21
60371;BME280;48550;40.588;49.684;2022-07-06T11:46:37;101676.69;;;24.81;59.03
60371;BME280;48550;40.588;49.684;2022-07-06T11:49:06;101677.50;;;24.81;59.79
60371;BME280;48550;40.588;49.684;2022-07-06T11:51:37;101677.31;;;24.78;60.14
60371;BME280;48550;40.588;49.684;2022-07-06T11:54:15;101671.00;;;24.77;58.25
60371;BME280;48550;40.588;49.684;2022-07-06T11:59:23;101674.25;;;24.79;58.86
60371;BME280;48550;40.588;49.684;2022-07-06T12:01:57;101684.63;;;24.82;57.94
60371;BME280;48550;40.588;49.684;2022-07-06T12:04:24;101681.88;;;24.82;56.79
60371;BME280;48550;40.588;49.684;2022-07-06T12:06:50;101671.81;;;24.78;57.11
60371;BME280;48550;40.588;49.684;2022-07-06T12:09:16;101670.91;;;24.68;57.41
60371;BME280;48550;40.588;49.684;2022-07-06T12:11:44;101672.81;;;24.68;58.41
60371;BME280;48550;40.588;49.684;2022-07-06T12:14:20;101678.91;;;24.65;58.97
60371;BME280;48550;40.588;49.684;2022-07-06T12:16:47;101684.41;;;24.65;58.81
60371;BME280;48550;40.588;49.684;2022-07-06T12:19:13;101677.34;;;24.45;58.04
60371;BME280;48550;40.588;49.684;2022-07-06T12:21:44;101677.66;;;24.44;57.33
60371;BME280;48550;40.588;49.684;2022-07-06T12:24:26;101666.56;;;24.35;57.63
60371;BME280;48550;40.588;49.684;2022-07-06T12:26:57;101680.59;;;24.33;58.44
60371;BME280;48550;40.588;49.684;2022-07-06T12:29:24;101669.72;;;24.42;58.46
60371;BME280;48550;40.588;49.684;2022-07-06T12:31:52;101671.84;;;24.31;58.35
60371;BME280;48550;40.588;49.684;2022-07-06T12:34:22;101668.28;;;24.31;58.81
60371;BME280;48550;40.588;49.684;2022-07-06T12:37:13;101669.41;;;24.44;59.71
60371;BME280;48550;40.588;49.684;2022-07-06T12:39:43;101676.63;;;24.39;57.19
60371;BME280;48550;40.588;49.684;2022-07-06T12:42:09;101670.22;;;24.30;59.41
60371;BME280;48550;40.588;49.684;2022-07-06T12:44:46;101666.78;;;24.38;59.45
60371;BME280;48550;40.588;49.684;2022-07-06T12:47:16;101668.50;;;24.48;57.57
60371;BME280;48550;40.588;49.684;2022-07-06T12:49:42;101675.81;;;24.39;58.06
60371;BME280;48550;40.588;49.684;2022-07-06T12:52:09;101672.56;;;24.37;55.28
60371;BME280;48550;40.588;49.684;2022-07-06T12:54:46;101676.00;;;24.29;56.49
60371;BME280;48550;40.588;49.684;2022-07-06T13:05:01;101669.84;;;24.18;57.07